Time;durP1;ratioP1;P1;durP2;ratioP2;P2;SDS_P1;SDS_P2;PMS_P1;PMS_P2;Temp;Humidity;BMP_temperature;BMP_pressure;BME280_temperature;BME280_humidity;BME280_pressure;Samples;Min_cycle;Max_cycle;Signal;HPM_P1;HPM_P2
2023/01/17 00:01:10;;;;;;;19.85;12.25;;;256.20;2252.80;;;;;;5050176;28;20032;-60
2023/01/17 00:09:51;;;;;;;91.30;60.58;;;256.40;2252.80;;;;;;5049938;28;20024;-61
2023/01/17 00:12:00;;;;;;;55.33;29.88;;;256.30;2252.80;;;;;;5048538;28;20082;-60
2023/01/17 00:14:26;;;;;;;49.42;27.33;;;256.40;2252.80;;;;;;5049931;28;20128;-63
2023/01/17 00:16:52;;;;;;;46.78;26.00;;;256.40;2252.80;;;;;;5050092;28;20021;-60
2023/01/17 01:34:04;;;;;;;18.98;12.85;;;230.60;2252.80;;;;;;5051753;28;20383;-68
2023/01/17 01:36:29;;;;;;;19.33;13.75;;;230.60;2252.80;;;;;;5052845;28;20029;-62
2023/01/17 01:38:55;;;;;;;16.45;10.63;;;230.60;2252.80;;;;;;5052539;28;20402;-63
2023/01/17 01:41:21;;;;;;;60.33;30.45;;;230.50;2252.80;;;;;;5052680;28;20075;-69
2023/01/17 01:43:53;;;;;;;19.25;11.90;;;230.50;2252.80;;;;;;5052235;28;20049;-66
2023/01/17 01:46:28;;;;;;;19.67;11.93;;;230.40;2252.80;;;;;;5050543;28;20024;-65
2023/01/17 01:49:07;;;;;;;30.02;18.08;;;230.40;2252.80;;;;;;5052221;28;20023;-66
2023/01/17 01:51:43;;;;;;;37.90;23.45;;;230.40;2252.80;;;;;;5052911;28;20372;-62
2023/01/17 01:54:14;;;;;;;15.77;11.38;;;230.40;2252.80;;;;;;5052917;28;20464;-72
2023/01/17 01:56:40;;;;;;;15.27;9.77;;;230.40;2252.80;;;;;;5052977;28;20021;-66
2023/01/17 01:59:10;;;;;;;13.10;7.38;;;205.70;2252.80;;;;;;5052838;28;20049;-61
2023/01/17 02:01:35;;;;;;;11.98;8.60;;;205.70;2252.80;;;;;;5052646;28;20028;-61
2023/01/17 02:04:02;;;;;;;13.23;7.47;;;230.40;2252.80;;;;;;5052913;28;20143;-61
2023/01/17 02:06:42;;;;;;;12.32;8.00;;;230.40;2252.80;;;;;;5052419;28;20021;-61
2023/01/17 02:09:10;;;;;;;10.77;6.80;;;230.40;2252.80;;;;;;5052819;28;20108;-61
2023/01/17 02:11:37;;;;;;;9.90;6.45;;;230.50;2252.80;;;;;;5052192;28;20471;-61
2023/01/17 02:14:03;;;;;;;13.77;7.30;;;230.60;2252.80;;;;;;5052122;28;20033;-66
2023/01/17 02:16:48;;;;;;;14.45;6.50;;;230.70;2252.80;;;;;;5052442;28;20379;-72
2023/01/17 02:19:16;;;;;;;16.30;9.20;;;230.70;2252.80;;;;;;5052409;28;20016;-60
2023/01/17 02:21:54;;;;;;;14.90;8.20;;;230.90;2252.80;;;;;;5052472;28;20052;-59
2023/01/17 02:24:56;;;;;;;36.95;23.77;;;230.70;2252.80;;;;;;5052411;28;20068;-60
2023/01/17 02:27:43;;;;;;;96.38;50.55;;;230.70;2252.80;;;;;;5052606;28;20071;-62
2023/01/17 02:30:34;;;;;;;35.03;19.73;;;230.70;2252.80;;;;;;5052553;28;20029;-62
2023/01/17 02:33:11;;;;;;;63.78;31.58;;;230.70;2252.80;;;;;;5052397;28;20395;-74
2023/01/17 02:36:05;;;;;;;22.02;13.07;;;230.70;2252.80;;;;;;5052063;28;20025;-71
2023/01/17 02:38:51;;;;;;;28.73;17.52;;;230.70;2252.80;;;;;;5052345;28;20391;-61
2023/01/17 02:41:33;;;;;;;140.32;77.25;;;230.60;2252.80;;;;;;5051947;28;20386;-62
2023/01/17 02:44:01;;;;;;;59.40;34.72;;;230.60;2252.80;;;;;;5051623;28;20057;-73
2023/01/17 02:46:27;;;;;;;29.60;18.30;;;230.60;2252.80;;;;;;5051520;28;20024;-60
2023/01/17 02:48:55;;;;;;;56.95;32.78;;;230.60;2252.80;;;;;;5052155;28;20020;-60
2023/01/17 02:51:20;;;;;;;24.33;15.82;;;230.60;2252.80;;;;;;5051955;28;20021;-59
2023/01/17 02:54:00;;;;;;;15.70;10.18;;;230.50;2252.80;;;;;;5051840;28;20025;-60
2023/01/17 02:57:05;;;;;;;20.48;13.30;;;230.40;2252.80;;;;;;5051783;28;20028;-60
2023/01/17 02:59:45;;;;;;;53.03;29.05;;;230.50;2252.80;;;;;;5034439;28;20064;-60
2023/01/17 03:02:29;;;;;;;139.18;76.32;;;230.60;2252.80;;;;;;5052630;28;20025;-61
2023/01/17 03:04:59;;;;;;;36.42;20.52;;;230.60;2252.80;;;;;;5052357;28;20471;-61
2023/01/17 03:07:26;;;;;;;117.28;62.97;;;230.70;2252.80;;;;;;5052365;28;20025;-61
2023/01/17 03:09:58;;;;;;;24.20;15.52;;;230.80;2252.80;;;;;;5056692;28;20029;-61
2023/01/17 03:12:33;;;;;;;19.83;14.00;;;230.60;2252.80;;;;;;5056974;28;20032;-63
2023/01/17 03:14:59;;;;;;;20.65;13.48;;;205.40;2252.80;;;;;;5056975;28;20021;-61
2023/01/17 03:17:31;;;;;;;42.58;25.42;;;205.50;2252.80;;;;;;5057244;28;20390;-75
2023/01/17 03:19:56;;;;;;;14.95;9.60;;;205.70;2252.80;;;;;;5056187;28;20021;-60
2023/01/17 03:22:22;;;;;;;13.38;9.68;;;205.50;2252.80;;;;;;5051302;28;20387;-74
2023/01/17 03:24:48;;;;;;;13.40;9.20;;;205.30;2252.80;;;;;;5051392;28;20045;-61
2023/01/17 03:27:14;;;;;;;14.32;8.23;;;205.30;2252.80;;;;;;5050960;28;20029;-63
2023/01/17 03:29:39;;;;;;;12.85;9.45;;;205.30;2252.80;;;;;;5051384;28;20025;-60
2023/01/17 03:32:05;;;;;;;30.52;17.02;;;205.50;2252.80;;;;;;5051017;28;20051;-61
2023/01/17 03:34:30;;;;;;;13.90;10.88;;;205.50;2252.80;;;;;;5051389;28;20032;-60
2023/01/17 03:36:56;;;;;;;28.55;19.30;;;205.70;2252.80;;;;;;5051159;28;20040;-62
2023/01/17 03:39:22;;;;;;;19.20;11.48;;;230.40;2252.80;;;;;;5050975;28;20506;-60
2023/01/17 03:41:48;;;;;;;21.27;14.00;;;230.40;2252.80;;;;;;5050862;28;20028;-73
2023/01/17 03:44:13;;;;;;;30.50;15.07;;;230.40;2252.80;;;;;;5033394;28;20160;-61
2023/01/17 03:46:39;;;;;;;29.88;19.67;;;205.70;2252.80;;;;;;5051197;28;20394;-60
2023/01/17 03:49:05;;;;;;;42.90;24.70;;;230.40;2252.80;;;;;;5051293;28;20029;-72
2023/01/17 03:51:30;;;;;;;24.73;17.15;;;230.40;2252.80;;;;;;5051413;28;20048;-61
2023/01/17 03:53:56;;;;;;;17.98;11.73;;;230.40;2252.80;;;;;;5050621;28;20028;-60
2023/01/17 03:56:22;;;;;;;12.60;8.98;;;205.70;2252.80;;;;;;5051166;28;20028;-73
2023/01/17 03:58:47;;;;;;;13.77;8.65;;;205.70;2252.80;;;;;;5049833;28;20067;-61
2023/01/17 04:01:13;;;;;;;14.00;9.38;;;205.70;2252.80;;;;;;5050708;28;20035;-60
2023/01/17 04:03:39;;;;;;;14.20;9.77;;;230.40;2252.80;;;;;;5050759;28;20025;-60
2023/01/17 04:06:05;;;;;;;16.98;10.95;;;205.70;2252.80;;;;;;5050804;28;20058;-60
2023/01/17 04:08:31;;;;;;;21.02;12.80;;;230.40;2252.80;;;;;;5050671;28;20017;-68
2023/01/17 04:10:56;;;;;;;43.88;28.20;;;230.40;2252.80;;;;;;5050750;28;20059;-69
2023/01/17 04:13:22;;;;;;;13.55;7.18;;;230.40;2252.80;;;;;;5051013;28;20483;-60
2023/01/17 04:15:49;;;;;;;44.72;25.27;;;230.40;2252.80;;;;;;5050926;28;20040;-63
2023/01/17 04:18:19;;;;;;;14.20;9.35;;;230.50;2252.80;;;;;;5050743;28;20092;-70
2023/01/17 04:20:45;;;;;;;85.25;47.78;;;230.60;2252.80;;;;;;5050418;28;20474;-61
2023/01/17 04:23:11;;;;;;;50.45;29.05;;;230.60;2252.80;;;;;;5050537;28;20143;-61
2023/01/17 04:25:37;;;;;;;42.42;25.35;;;230.70;2252.80;;;;;;5050185;28;20395;-71
2023/01/17 04:28:03;;;;;;;21.42;12.63;;;230.70;2252.80;;;;;;5050667;28;20017;-60
2023/01/17 04:30:30;;;;;;;71.03;63.22;;;230.70;2252.80;;;;;;5050625;28;20554;-61
2023/01/17 04:32:56;;;;;;;42.15;26.55;;;230.70;2252.80;;;;;;5050370;28;20017;-72
2023/01/17 04:35:23;;;;;;;71.20;41.17;;;230.80;2252.80;;;;;;5050805;28;20025;-60
2023/01/17 04:37:49;;;;;;;53.80;28.13;;;230.90;2252.80;;;;;;5050332;28;20418;-63
2023/01/17 04:40:16;;;;;;;52.40;27.55;;;230.90;2252.80;;;;;;5050095;28;20052;-63
2023/01/17 04:42:44;;;;;;;41.67;24.63;;;230.80;2252.80;;;;;;5050343;28;20057;-61
2023/01/17 04:45:11;;;;;;;36.88;21.25;;;230.80;2252.80;;;;;;5050518;28;20402;-71
2023/01/17 04:47:36;;;;;;;52.60;31.52;;;230.80;2252.80;;;;;;5050160;28;20471;-62
2023/01/17 04:50:02;;;;;;;20.13;12.40;;;230.60;2252.80;;;;;;5050216;28;20029;-68
2023/01/17 04:52:28;;;;;;;27.73;18.25;;;230.60;2252.80;;;;;;5050205;28;20025;-61
2023/01/17 04:54:53;;;;;;;21.20;15.70;;;230.50;2252.80;;;;;;5050393;28;20050;-67
2023/01/17 04:57:19;;;;;;;121.32;65.13;;;230.70;2252.80;;;;;;5050198;28;20463;-70
2023/01/17 04:59:45;;;;;;;78.38;40.92;;;230.70;2252.80;;;;;;5049986;28;20029;-63
2023/01/17 05:02:12;;;;;;;109.32;62.10;;;230.70;2252.80;;;;;;5050377;28;20152;-61
2023/01/17 05:04:38;;;;;;;44.17;24.98;;;230.70;2252.80;;;;;;5049959;28;20124;-67
2023/01/17 05:07:05;;;;;;;58.05;34.33;;;230.70;2252.80;;;;;;5050298;28;20069;-61
2023/01/17 05:09:30;;;;;;;41.33;27.42;;;230.60;2252.80;;;;;;5050557;28;20028;-68
2023/01/17 05:11:56;;;;;;;39.15;26.38;;;230.60;2252.80;;;;;;5053618;28;20029;-62
2023/01/17 05:14:25;;;;;;;31.17;20.10;;;230.50;2252.80;;;;;;5053955;28;20036;-65
2023/01/17 05:16:57;;;;;;;163.13;83.30;;;230.50;2252.80;;;;;;5054105;28;20040;-61
2023/01/17 05:19:24;;;;;;;139.77;66.53;;;230.50;2252.80;;;;;;5053900;28;20025;-62
2023/01/17 05:21:50;;;;;;;67.13;38.40;;;230.40;2252.80;;;;;;5053600;28;20421;-62
2023/01/17 05:24:16;;;;;;;87.50;40.38;;;230.40;2252.80;;;;;;5053749;28;20048;-61
2023/01/17 05:26:42;;;;;;;71.88;33.22;;;230.40;2252.80;;;;;;5053667;28;20021;-63
2023/01/17 05:29:09;;;;;;;96.65;49.42;;;205.70;2252.80;;;;;;5053381;28;20025;-61
2023/01/17 05:31:35;;;;;;;81.82;43.75;;;230.40;2252.80;;;;;;5053464;28;20036;-66
2023/01/17 05:34:01;;;;;;;52.22;28.80;;;230.40;2252.80;;;;;;5053449;28;20039;-60
2023/01/17 05:36:26;;;;;;;62.30;32.63;;;230.40;2252.80;;;;;;5053147;28;20539;-62
2023/01/17 05:38:52;;;;;;;49.92;25.75;;;205.70;2252.80;;;;;;5053626;28;20116;-60
2023/01/17 05:41:18;;;;;;;41.92;22.67;;;205.70;2252.80;;;;;;5053255;28;20024;-72
2023/01/17 05:43:43;;;;;;;71.47;42.20;;;230.40;2252.80;;;;;;5052994;28;20445;-62
2023/01/17 05:46:09;;;;;;;45.13;28.25;;;230.40;2252.80;;;;;;5053409;28;20112;-65
2023/01/17 05:48:35;;;;;;;69.90;37.83;;;230.40;2252.80;;;;;;5053387;28;20021;-60
2023/01/17 05:51:01;;;;;;;44.15;26.08;;;230.40;2252.80;;;;;;5053221;28;20073;-61
2023/01/17 05:53:26;;;;;;;35.13;21.70;;;230.50;2252.80;;;;;;5052644;28;20409;-72
2023/01/17 05:55:52;;;;;;;13.15;8.65;;;230.50;2252.80;;;;;;5053369;28;20465;-60
2023/01/17 05:58:20;;;;;;;39.85;27.17;;;230.50;2252.80;;;;;;5052485;28;20602;-61
2023/01/17 06:00:46;;;;;;;70.85;50.80;;;230.50;2252.80;;;;;;5052652;28;20035;-62
2023/01/17 06:03:13;;;;;;;55.92;41.50;;;230.40;2252.80;;;;;;5053017;28;20032;-69
2023/01/17 06:05:39;;;;;;;52.50;40.70;;;230.40;2252.80;;;;;;5053134;28;20491;-68
2023/01/17 06:08:05;;;;;;;54.35;44.10;;;230.50;2252.80;;;;;;5052660;28;20414;-61
2023/01/17 06:10:31;;;;;;;32.90;23.50;;;230.50;2252.80;;;;;;5052605;28;20033;-60
2023/01/17 06:13:09;;;;;;;51.50;40.05;;;205.70;2252.80;;;;;;5052668;28;20028;-69
2023/01/17 06:15:35;;;;;;;89.40;77.88;;;205.60;2252.80;;;;;;5052600;28;20103;-61
2023/01/17 06:18:19;;;;;;;65.05;45.70;;;205.60;2252.80;;;;;;5052813;28;20052;-61
2023/01/17 06:20:45;;;;;;;;;;;205.70;2252.80;;;;;;5052761;28;20032;-61
2023/01/17 06:23:12;;;;;;;70.78;52.25;;;205.70;2252.80;;;;;;5052432;28;19905;-71
2023/01/17 06:25:44;;;;;;;76.80;55.58;;;205.50;2252.80;;;;;;5052504;28;20037;-60
2023/01/17 06:28:14;;;;;;;66.22;48.53;;;205.60;2252.80;;;;;;5052397;28;20045;-60
2023/01/17 06:30:41;;;;;;;82.50;62.97;;;205.50;2252.80;;;;;;5052639;28;20044;-72
2023/01/17 06:33:06;;;;;;;131.93;94.20;;;205.60;2252.80;;;;;;5052284;28;20028;-61
2023/01/17 06:35:32;;;;;;;139.20;103.60;;;205.70;2252.80;;;;;;5052656;28;20379;-60
2023/01/17 06:37:59;;;;;;;120.07;88.57;;;205.50;2252.80;;;;;;5052143;28;20055;-60
2023/01/17 06:40:26;;;;;;;123.15;95.88;;;230.40;2252.80;;;;;;5052212;28;20433;-60
2023/01/17 06:42:52;;;;;;;148.57;109.88;;;230.40;2252.80;;;;;;5052062;28;20091;-60
2023/01/17 06:45:18;;;;;;;122.18;94.75;;;230.60;2252.80;;;;;;5052174;28;20033;-61
2023/01/17 06:47:44;;;;;;;136.85;98.75;;;230.60;2252.80;;;;;;5052247;28;20036;-61
2023/01/17 06:50:12;;;;;;;41.17;29.40;;;230.80;2252.80;;;;;;5052065;28;20029;-60
2023/01/17 06:52:39;;;;;;;85.63;64.47;;;230.90;2252.80;;;;;;5052083;28;20023;-63
2023/01/17 06:55:06;;;;;;;89.43;73.22;;;231.00;2252.80;;;;;;5051405;28;20020;-67
2023/01/17 06:57:32;;;;;;;136.13;100.35;;;231.10;2252.80;;;;;;5051687;28;20021;-61
2023/01/17 06:59:58;;;;;;;211.38;131.52;;;231.20;2252.80;;;;;;5051580;28;20430;-67
2023/01/17 07:02:24;;;;;;;159.90;110.78;;;231.10;2252.80;;;;;;5051485;28;20025;-61
2023/01/17 07:04:50;;;;;;;160.13;109.88;;;231.00;2252.80;;;;;;5051574;28;20029;-59
2023/01/17 07:07:15;;;;;;;190.30;139.55;;;230.90;2252.80;;;;;;5051167;28;20500;-59
2023/01/17 07:09:42;;;;;;;121.88;96.72;;;230.90;2252.80;;;;;;5051443;28;20024;-60
2023/01/17 07:12:08;;;;;;;685.20;471.40;;;230.80;2252.80;;;;;;5051264;28;20040;-63
2023/01/17 07:14:34;;;;;;;163.68;128.52;;;230.80;2252.80;;;;;;5051527;28;20446;-61
2023/01/17 07:16:59;;;;;;;46.70;33.60;;;230.90;2252.80;;;;;;5051857;28;20532;-60
2023/01/17 07:19:25;;;;;;;36.25;26.40;;;231.00;2252.80;;;;;;5051302;28;20025;-60
2023/01/17 07:21:52;;;;;;;20.15;14.02;;;231.20;2252.80;;;;;;5051417;28;20055;-62
2023/01/17 07:24:19;;;;;;;32.83;22.50;;;256.00;2252.80;;;;;;5051411;28;20063;-62
2023/01/17 07:26:49;;;;;;;19.95;13.77;;;256.30;2252.80;;;;;;5051316;28;20036;-61
2023/01/17 07:29:15;;;;;;;28.42;22.15;;;256.40;2252.80;;;;;;5051169;28;20025;-61
2023/01/17 07:31:41;;;;;;;48.97;40.60;;;256.50;2252.80;;;;;;5051535;28;20028;-60
2023/01/17 07:34:07;;;;;;;62.20;52.95;;;256.40;2252.80;;;;;;5051224;28;20021;-62
2023/01/17 07:36:33;;;;;;;92.95;75.63;;;256.30;2252.80;;;;;;5050780;28;20375;-60
2023/01/17 07:38:59;;;;;;;80.72;63.05;;;256.20;2252.80;;;;;;5051211;28;20025;-60
2023/01/17 07:41:24;;;;;;;132.77;102.47;;;256.20;2252.80;;;;;;5050620;28;20041;-60
2023/01/17 07:43:50;;;;;;;195.07;153.20;;;256.00;2252.80;;;;;;5050766;28;20064;-61
2023/01/17 07:46:16;;;;;;;266.60;187.43;;;231.30;2252.80;;;;;;5050660;28;20533;-61
2023/01/17 07:48:42;;;;;;;284.05;214.93;;;256.10;2252.80;;;;;;5051276;28;20024;-60
2023/01/17 07:51:08;;;;;;;247.75;183.85;;;256.00;2252.80;;;;;;5050896;28;20132;-61
2023/01/17 07:53:35;;;;;;;292.40;222.50;;;256.00;2252.80;;;;;;5050466;28;20017;-60
2023/01/17 07:56:06;;;;;;;212.10;160.00;;;256.00;2252.80;;;;;;5050828;28;20093;-60
2023/01/17 07:58:32;;;;;;;183.77;140.55;;;256.10;2252.80;;;;;;5051040;28;20036;-60
2023/01/17 08:01:09;;;;;;;174.70;132.88;;;256.00;2252.80;;;;;;5050670;28;20063;-60
2023/01/17 08:03:38;;;;;;;184.95;134.40;;;256.10;2252.80;;;;;;5049326;28;20029;-62
2023/01/17 08:06:25;;;;;;;181.00;131.20;;;256.20;2252.80;;;;;;5049047;28;20021;-60
2023/01/17 08:08:55;;;;;;;127.50;97.32;;;256.20;2252.80;;;;;;5047921;28;20116;-60
2023/01/17 08:11:21;;;;;;;112.00;85.32;;;256.20;2252.80;;;;;;5047913;28;20041;-60
2023/01/17 08:13:47;;;;;;;79.15;52.38;;;256.20;2252.80;;;;;;5050553;28;20044;-60
2023/01/17 08:16:14;;;;;;;54.80;43.28;;;256.20;2252.80;;;;;;5050259;28;20477;-61
2023/01/17 08:18:40;;;;;;;41.53;33.35;;;256.20;2252.80;;;;;;5050638;28;20116;-60
2023/01/17 08:21:13;;;;;;;38.60;29.95;;;256.20;2252.80;;;;;;5050170;28;20374;-60
2023/01/17 08:23:39;;;;;;;60.15;46.08;;;256.40;2252.80;;;;;;5050539;28;20033;-61
2023/01/17 08:26:04;;;;;;;54.15;40.03;;;256.50;2252.80;;;;;;5050352;28;20102;-61
2023/01/17 08:28:30;;;;;;;44.65;33.60;;;307.50;2304.00;;;;;;5050542;28;20048;-60
2023/01/17 08:30:56;;;;;;;31.50;25.42;;;358.90;2329.60;;;;;;5050166;28;20160;-63
2023/01/17 08:33:21;;;;;;;34.40;27.67;;;359.30;2329.60;;;;;;5050325;28;20108;-60
2023/01/17 08:35:52;;;;;;;27.33;23.00;;;384.70;2329.60;;;;;;5050081;28;20032;-61
2023/01/17 08:38:18;;;;;;;20.10;16.55;;;410.20;2355.20;;;;;;5049994;28;20467;-60
2023/01/17 08:40:43;;;;;;;20.52;18.17;;;435.60;2355.20;;;;;;5049490;28;20043;-61
2023/01/17 08:43:09;;;;;;;19.02;16.55;;;436.00;2252.80;;;;;;5053765;28;20040;-61
2023/01/17 08:45:35;;;;;;;21.48;18.25;;;435.50;2304.00;;;;;;5072493;28;20035;-61
2023/01/17 08:48:00;;;;;;;20.58;16.90;;;410.40;2355.20;;;;;;5074216;28;20336;-60
2023/01/17 08:50:26;;;;;;;18.48;13.65;;;384.70;2329.60;;;;;;5073569;28;20036;-61
2023/01/17 08:52:58;;;;;;;27.35;21.85;;;359.20;2329.60;;;;;;5073894;28;20028;-59
2023/01/17 08:55:24;;;;;;;25.30;21.98;;;409.60;2355.20;;;;;;5073970;28;20490;-63
2023/01/17 08:57:50;;;;;;;63.15;50.67;;;461.10;2329.60;;;;;;5074145;28;20489;-60
2023/01/17 09:00:16;;;;;;;81.95;71.90;;;487.20;2048.00;;;;;;5073368;28;20025;-63
2023/01/17 09:02:42;;;;;;;96.63;78.70;;;486.40;2150.40;;;;;;5074094;28;20360;-61
2023/01/17 09:05:08;;;;;;;77.90;68.43;;;486.40;2176.00;;;;;;5073600;28;20035;-60
2023/01/17 09:07:33;;;;;;;68.97;60.47;;;461.50;2176.00;;;;;;5073867;28;20131;-62
2023/01/17 09:09:59;;;;;;;98.07;86.07;;;435.90;2252.80;;;;;;5073795;28;20427;-61
2023/01/17 09:12:26;;;;;;;99.75;87.20;;;435.80;2329.60;;;;;;5073531;28;20115;-61
2023/01/17 09:14:51;;;;;;;109.15;97.15;;;435.60;2355.20;;;;;;5073594;28;20071;-60
2023/01/17 09:17:17;;;;;;;117.13;100.70;;;435.20;2355.20;;;;;;5073338;28;20056;-61
2023/01/17 09:19:44;;;;;;;106.13;94.72;;;435.60;2355.20;;;;;;5073610;28;20035;-63
2023/01/17 09:22:12;;;;;;;104.82;93.35;;;435.60;2355.20;;;;;;5073847;28;20130;-61
2023/01/17 09:24:38;;;;;;;82.28;73.47;;;461.30;2278.40;;;;;;5073488;28;20386;-63
2023/01/17 09:27:05;;;;;;;78.25;69.72;;;461.10;2252.80;;;;;;5073575;28;20024;-63
2023/01/17 09:29:31;;;;;;;74.63;66.53;;;435.90;2278.40;;;;;;5073635;28;20106;-61
2023/01/17 09:31:56;;;;;;;95.13;83.18;;;435.90;2329.60;;;;;;5073396;28;20375;-63
2023/01/17 09:34:25;;;;;;;76.30;67.88;;;436.10;2329.60;;;;;;5067254;28;20020;-60
2023/01/17 09:36:51;;;;;;;62.35;51.53;;;435.50;2355.20;;;;;;5062667;28;20104;-60
2023/01/17 09:39:17;;;;;;;54.55;47.70;;;435.40;2355.20;;;;;;5060588;28;20108;-61
2023/01/17 09:41:58;;;;;;;67.72;54.28;;;409.90;2355.20;;;;;;5061704;28;20055;-58
2023/01/17 09:44:44;;;;;;;78.22;62.90;;;410.20;2355.20;;;;;;5049634;28;20045;-61
2023/01/17 09:47:32;;;;;;;89.65;72.97;;;410.30;2355.20;;;;;;5050750;28;20693;-61
2023/01/17 09:50:15;;;;;;;104.15;83.80;;;409.70;2355.20;;;;;;5048833;28;20467;-60
2023/01/17 09:52:40;;;;;;;228.95;146.70;;;384.20;2329.60;;;;;;5049510;28;20142;-61
2023/01/17 09:55:13;;;;;;;293.75;182.35;;;384.50;2329.60;;;;;;5051384;28;20039;-61
2023/01/17 09:57:55;;;;;;;122.15;92.45;;;384.20;2329.60;;;;;;5039960;28;20030;-58
2023/01/17 10:00:50;;;;;;;100.72;83.10;;;359.00;2329.60;;;;;;5020136;28;20567;-62
2023/01/17 10:03:40;;;;;;;111.88;81.45;;;358.70;2329.60;;;;;;5037204;28;20022;-60
2023/01/17 10:06:19;;;;;;;125.35;99.32;;;358.70;2329.60;;;;;;5044464;28;20056;-58
2023/01/17 10:08:50;;;;;;;121.65;94.97;;;358.80;2329.60;;;;;;5044051;28;20037;-60
2023/01/17 10:11:43;;;;;;;135.30;102.05;;;358.80;2329.60;;;;;;5036830;28;20013;-61
2023/01/17 10:14:26;;;;;;;146.57;112.03;;;358.60;2329.60;;;;;;5044608;28;20056;-59
2023/01/17 10:17:12;;;;;;;156.77;122.68;;;358.40;2329.60;;;;;;5037439;28;20026;-62
2023/01/17 10:19:57;;;;;;;160.43;118.22;;;333.70;2329.60;;;;;;5043266;28;20371;-60
2023/01/17 10:22:50;;;;;;;109.50;80.63;;;333.50;2329.60;;;;;;5044542;28;20364;-63
2023/01/17 10:25:58;;;;;;;137.17;98.63;;;333.70;2329.60;;;;;;5039246;28;20439;-60
2023/01/17 10:28:49;;;;;;;87.82;68.18;;;333.60;2329.60;;;;;;4987901;28;20283;-60
2023/01/17 10:31:24;;;;;;;66.10;48.22;;;333.40;2329.60;;;;;;4987513;28;20035;-60
2023/01/17 10:33:53;;;;;;;83.95;53.40;;;333.40;2329.60;;;;;;4988052;28;20021;-62
2023/01/17 10:36:20;;;;;;;58.20;39.40;;;333.40;2329.60;;;;;;4988110;28;20023;-61
2023/01/17 10:38:52;;;;;;;45.25;32.25;;;333.50;2329.60;;;;;;4987517;28;20049;-60
2023/01/17 10:41:27;;;;;;;51.00;34.88;;;333.60;2329.60;;;;;;4987817;28;20033;-60
2023/01/17 10:44:06;;;;;;;68.70;47.92;;;333.60;2329.60;;;;;;5025411;28;20057;-61
2023/01/17 10:46:35;;;;;;;46.40;33.85;;;333.70;2329.60;;;;;;5028822;28;20037;-61
2023/01/17 10:49:02;;;;;;;35.97;27.83;;;333.70;2329.60;;;;;;5014308;28;21392;-62
2023/01/17 10:51:49;;;;;;;55.85;40.47;;;358.50;2329.60;;;;;;5030513;28;20073;-71
2023/01/17 10:54:37;;;;;;;40.00;29.38;;;358.50;2329.60;;;;;;5030465;28;20025;-62
2023/01/17 10:57:03;;;;;;;53.45;39.88;;;358.80;2329.60;;;;;;5030293;28;20149;-62
2023/01/17 10:59:32;;;;;;;54.35;40.88;;;358.70;2329.60;;;;;;5032147;28;20100;-73
2023/01/17 11:01:58;;;;;;;56.95;40.78;;;358.70;2329.60;;;;;;5028601;28;20464;-61
2023/01/17 11:04:39;;;;;;;42.03;29.88;;;358.70;2329.60;;;;;;5056143;28;20551;-62
2023/01/17 11:07:28;;;;;;;42.95;32.45;;;358.70;2329.60;;;;;;5060998;28;20063;-62
2023/01/17 11:09:56;;;;;;;48.95;35.50;;;358.70;2329.60;;;;;;5026302;28;20038;-62
2023/01/17 11:12:22;;;;;;;51.95;38.00;;;359.20;2329.60;;;;;;5028119;28;20048;-61
2023/01/17 11:15:08;;;;;;;33.15;24.85;;;359.10;2329.60;;;;;;5028752;28;20041;-62
2023/01/17 11:17:45;;;;;;;29.77;18.58;;;359.10;2329.60;;;;;;5022388;28;20017;-61
2023/01/17 11:20:27;;;;;;;36.95;26.13;;;358.90;2329.60;;;;;;5025065;28;20134;-61
2023/01/17 11:23:21;;;;;;;50.25;38.40;;;359.30;2329.60;;;;;;5027290;28;20450;-61
2023/01/17 11:25:51;;;;;;;;;;;359.30;2329.60;;;;;;5027872;28;20189;-60
2023/01/17 11:28:29;;;;;;;58.10;42.35;;;359.30;2329.60;;;;;;5028313;28;20341;-61
2023/01/17 11:30:56;;;;;;;62.95;45.53;;;359.30;2329.60;;;;;;5028088;28;20029;-62
2023/01/17 11:33:55;;;;;;;104.32;79.43;;;384.00;2329.60;;;;;;5027961;28;20546;-61
2023/01/17 11:36:29;;;;;;;36.45;23.15;;;384.10;2329.60;;;;;;5027037;28;20022;-61
2023/01/17 11:38:58;;;;;;;51.97;37.97;;;384.10;2329.60;;;;;;5024800;28;20442;-61
2023/01/17 11:41:26;;;;;;;52.20;32.33;;;384.40;2329.60;;;;;;5027084;28;20033;-62
2023/01/17 11:44:00;;;;;;;53.40;37.63;;;384.50;2329.60;;;;;;5026815;28;20526;-60
2023/01/17 11:46:28;;;;;;;57.15;37.25;;;384.40;2329.60;;;;;;5039789;28;20041;-62
2023/01/17 11:48:59;;;;;;;167.20;95.55;;;384.50;2329.60;;;;;;5060608;28;20363;-61
2023/01/17 11:51:24;;;;;;;45.20;29.05;;;384.60;2329.60;;;;;;5056146;28;20103;-61
2023/01/17 11:53:53;;;;;;;58.22;34.55;;;384.50;2329.60;;;;;;5056023;28;20036;-59
2023/01/17 11:56:32;;;;;;;43.90;27.77;;;384.40;2329.60;;;;;;5057610;28;20063;-62
2023/01/17 11:59:22;;;;;;;37.58;27.50;;;384.40;2329.60;;;;;;5059942;28;20079;-61
2023/01/17 12:01:59;;;;;;;43.55;25.35;;;384.50;2329.60;;;;;;5063580;28;20055;-61
2023/01/17 12:05:01;;;;;;;66.88;42.60;;;384.20;2329.60;;;;;;5070395;28;20087;-61
2023/01/17 12:07:30;;;;;;;41.15;24.70;;;384.10;2329.60;;;;;;5070150;28;20466;-61
2023/01/17 12:10:08;;;;;;;56.83;33.10;;;384.00;2329.60;;;;;;5070448;28;20484;-61
2023/01/17 12:15:35;;;;;;;78.70;50.03;;;384.00;2329.60;;;;;;5060827;28;20501;-61
2023/01/17 12:18:10;;;;;;;84.65;50.60;;;384.20;2329.60;;;;;;5059909;28;20021;-61
2023/01/17 12:21:13;;;;;;;74.18;52.53;;;384.10;2329.60;;;;;;5066705;28;20058;-60
2023/01/17 12:24:02;;;;;;;41.40;27.50;;;384.10;2329.60;;;;;;5067961;28;20020;-59
2023/01/17 12:26:53;;;;;;;53.92;32.47;;;359.30;2329.60;;;;;;5070173;28;20048;-60
2023/01/17 12:29:33;;;;;;;47.97;31.63;;;359.30;2329.60;;;;;;5052450;28;20032;-62
2023/01/17 12:32:23;;;;;;;84.50;56.60;;;359.30;2329.60;;;;;;5070233;28;20544;-61
2023/01/17 12:34:57;;;;;;;47.22;29.70;;;384.00;2329.60;;;;;;5070107;28;20057;-61
2023/01/17 12:37:35;;;;;;;53.55;36.08;;;359.30;2329.60;;;;;;5070185;28;20056;-61
2023/01/17 12:40:06;;;;;;;67.32;44.28;;;384.00;2329.60;;;;;;5070267;28;20024;-62
2023/01/17 12:42:39;;;;;;;49.92;36.22;;;384.00;2329.60;;;;;;5062656;28;20079;-61
2023/01/17 12:45:13;;;;;;;;;;;384.00;2329.60;;;;;;5049943;28;20068;-61
2023/01/17 12:47:45;;;;;;;38.80;26.67;;;359.30;2329.60;;;;;;5047781;28;19908;-58
2023/01/17 12:50:49;;;;;;;34.53;25.70;;;359.30;2329.60;;;;;;5049769;28;20021;-60
2023/01/17 12:53:24;;;;;;;;;;;359.30;2329.60;;;;;;4963955;28;20588;-61
2023/01/17 12:56:10;;;;;;;37.80;29.95;;;359.20;2329.60;;;;;;5037210;28;19950;-63
2023/01/17 12:58:43;;;;;;;27.95;18.23;;;359.10;2329.60;;;;;;5030923;28;20021;-59
2023/01/17 13:01:38;;;;;;;352.65;203.30;;;359.00;2329.60;;;;;;5050240;28;20036;-61
2023/01/17 13:04:19;;;;;;;222.38;133.10;;;359.00;2329.60;;;;;;5049648;28;20538;-60
2023/01/17 13:06:59;;;;;;;39.35;25.35;;;359.10;2329.60;;;;;;5049876;28;20521;-60
2023/01/17 13:09:29;;;;;;;33.35;21.55;;;359.00;2329.60;;;;;;5049868;28;20533;-60
2023/01/17 13:12:08;;;;;;;28.30;18.42;;;359.10;2329.60;;;;;;5049693;28;20064;-60
2023/01/17 13:14:34;;;;;;;24.67;16.23;;;359.10;2329.60;;;;;;5049875;28;20486;-60
2023/01/17 13:17:12;;;;;;;31.55;23.83;;;359.00;2329.60;;;;;;5050007;28;20029;-60
2023/01/17 13:19:55;;;;;;;42.22;29.13;;;359.00;2329.60;;;;;;5049972;28;20032;-60
2023/01/17 13:22:25;;;;;;;62.05;40.88;;;358.90;2329.60;;;;;;5049876;28;20514;-60
2023/01/17 13:25:11;;;;;;;95.45;66.93;;;358.90;2329.60;;;;;;5049906;28;20479;-60
2023/01/17 13:27:55;;;;;;;76.78;58.05;;;358.70;2329.60;;;;;;5049132;28;20029;-60
2023/01/17 13:30:31;;;;;;;40.85;29.98;;;358.80;2329.60;;;;;;5050143;28;20379;-60
2023/01/17 13:33:06;;;;;;;28.52;21.73;;;358.80;2329.60;;;;;;5053229;28;20032;-60
2023/01/17 13:35:46;;;;;;;48.00;36.05;;;358.70;2329.60;;;;;;5053431;28;20045;-60
2023/01/17 13:38:36;;;;;;;40.17;25.63;;;358.80;2329.60;;;;;;5053291;28;20528;-60
2023/01/17 13:41:24;;;;;;;54.28;39.60;;;358.80;2329.60;;;;;;5053266;28;20506;-59
2023/01/17 13:46:59;;;;;;;36.13;24.45;;;358.80;2329.60;;;;;;5053164;28;20560;-60